sensor_id;sensor_type;location;lat;lon;timestamp;P1;durP1;ratioP1;P2;durP2;ratioP2
12359;SDS011;6244;51.460;7.090;2022-09-04T00:00:26;1112.05;;;778.70;;
12359;SDS011;6244;51.460;7.090;2022-09-04T00:05:24;1117.32;;;791.60;;
12359;SDS011;6244;51.460;7.090;2022-09-04T00:10:25;1116.13;;;784.25;;
12359;SDS011;6244;51.460;7.090;2022-09-04T00:15:25;1116.00;;;784.30;;
12359;SDS011;6244;51.460;7.090;2022-09-04T00:20:27;1114.03;;;774.08;;
12359;SDS011;6244;51.460;7.090;2022-09-04T00:25:28;1115.20;;;784.28;;
12359;SDS011;6244;51.460;7.090;2022-09-04T00:30:27;1114.40;;;783.22;;
12359;SDS011;6244;51.460;7.090;2022-09-04T00:35:25;1112.60;;;777.35;;
12359;SDS011;6244;51.460;7.090;2022-09-04T00:40:28;1110.68;;;767.90;;
12359;SDS011;6244;51.460;7.090;2022-09-04T00:45:28;1112.10;;;769.37;;
12359;SDS011;6244;51.460;7.090;2022-09-04T00:55:45;1114.00;;;772.53;;
12359;SDS011;6244;51.460;7.090;2022-09-04T01:00:46;1116.55;;;762.40;;
12359;SDS011;6244;51.460;7.090;2022-09-04T01:05:46;1116.05;;;761.75;;
12359;SDS011;6244;51.460;7.090;2022-09-04T01:10:50;1113.40;;;753.60;;
12359;SDS011;6244;51.460;7.090;2022-09-04T01:15:51;1121.50;;;780.83;;
12359;SDS011;6244;51.460;7.090;2022-09-04T01:20:51;1121.27;;;772.23;;
12359;SDS011;6244;51.460;7.090;2022-09-04T01:25:54;1120.03;;;771.85;;
12359;SDS011;6244;51.460;7.090;2022-09-04T01:30:53;1121.38;;;757.17;;
12359;SDS011;6244;51.460;7.090;2022-09-04T01:35:54;1120.93;;;773.60;;
12359;SDS011;6244;51.460;7.090;2022-09-04T01:40:55;1124.77;;;789.60;;
12359;SDS011;6244;51.460;7.090;2022-09-04T01:45:58;1119.75;;;766.20;;
12359;SDS011;6244;51.460;7.090;2022-09-04T01:51:00;1124.05;;;784.05;;
12359;SDS011;6244;51.460;7.090;2022-09-04T01:56:01;1121.88;;;773.88;;
12359;SDS011;6244;51.460;7.090;2022-09-04T02:01:03;1121.38;;;780.63;;
12359;SDS011;6244;51.460;7.090;2022-09-04T02:06:04;1117.28;;;766.75;;
12359;SDS011;6244;51.460;7.090;2022-09-04T02:11:06;1117.78;;;767.63;;
12359;SDS011;6244;51.460;7.090;2022-09-04T02:16:05;1121.30;;;783.28;;
12359;SDS011;6244;51.460;7.090;2022-09-04T02:21:09;1121.35;;;751.53;;
12359;SDS011;6244;51.460;7.090;2022-09-04T02:26:12;1125.28;;;764.95;;
12359;SDS011;6244;51.460;7.090;2022-09-04T02:31:15;1123.30;;;761.78;;
12359;SDS011;6244;51.460;7.090;2022-09-04T02:36:16;1123.00;;;761.50;;
12359;SDS011;6244;51.460;7.090;2022-09-04T02:41:18;1127.18;;;778.20;;
12359;SDS011;6244;51.460;7.090;2022-09-04T02:46:17;1121.75;;;778.33;;
12359;SDS011;6244;51.460;7.090;2022-09-04T02:51:18;1128.88;;;778.13;;
12359;SDS011;6244;51.460;7.090;2022-09-04T02:56:23;1126.50;;;758.55;;
12359;SDS011;6244;51.460;7.090;2022-09-04T03:01:21;1120.97;;;776.43;;
12359;SDS011;6244;51.460;7.090;2022-09-04T03:06:19;1127.20;;;770.10;;
12359;SDS011;6244;51.460;7.090;2022-09-04T03:11:22;1128.40;;;775.40;;
12359;SDS011;6244;51.460;7.090;2022-09-04T03:16:23;1121.30;;;760.53;;
12359;SDS011;6244;51.460;7.090;2022-09-04T03:21:22;1127.50;;;755.73;;
12359;SDS011;6244;51.460;7.090;2022-09-04T03:26:21;1120.97;;;750.30;;
12359;SDS011;6244;51.460;7.090;2022-09-04T03:31:25;1121.32;;;769.22;;
12359;SDS011;6244;51.460;7.090;2022-09-04T03:36:23;1116.43;;;768.50;;
12359;SDS011;6244;51.460;7.090;2022-09-04T03:41:26;1121.93;;;770.38;;
12359;SDS011;6244;51.460;7.090;2022-09-04T03:46:28;1120.88;;;758.67;;
12359;SDS011;6244;51.460;7.090;2022-09-04T03:51:28;1123.00;;;741.58;;
12359;SDS011;6244;51.460;7.090;2022-09-04T03:56:42;1122.80;;;753.80;;
12359;SDS011;6244;51.460;7.090;2022-09-04T04:01:45;1122.27;;;757.43;;
12359;SDS011;6244;51.460;7.090;2022-09-04T04:06:45;1125.03;;;748.83;;
12359;SDS011;6244;51.460;7.090;2022-09-04T04:11:48;1122.55;;;741.85;;
12359;SDS011;6244;51.460;7.090;2022-09-04T04:16:50;1123.20;;;749.00;;
12359;SDS011;6244;51.460;7.090;2022-09-04T04:21:52;1123.82;;;750.20;;
12359;SDS011;6244;51.460;7.090;2022-09-04T04:26:56;1126.10;;;755.90;;
12359;SDS011;6244;51.460;7.090;2022-09-04T04:31:59;1123.97;;;745.87;;
12359;SDS011;6244;51.460;7.090;2022-09-04T04:37:06;1125.25;;;751.80;;
12359;SDS011;6244;51.460;7.090;2022-09-04T04:42:14;1124.50;;;748.87;;
12359;SDS011;6244;51.460;7.090;2022-09-04T04:47:14;1126.18;;;749.10;;
12359;SDS011;6244;51.460;7.090;2022-09-04T04:52:19;1123.57;;;745.92;;
12359;SDS011;6244;51.460;7.090;2022-09-04T04:57:23;1121.50;;;738.33;;
12359;SDS011;6244;51.460;7.090;2022-09-04T05:02:23;1121.50;;;735.65;;
12359;SDS011;6244;51.460;7.090;2022-09-04T05:07:24;1119.95;;;726.67;;
12359;SDS011;6244;51.460;7.090;2022-09-04T05:12:41;1123.00;;;739.10;;
12359;SDS011;6244;51.460;7.090;2022-09-04T05:17:45;1120.57;;;732.58;;
12359;SDS011;6244;51.460;7.090;2022-09-04T05:22:43;1116.05;;;720.22;;
12359;SDS011;6244;51.460;7.090;2022-09-04T05:27:46;1116.43;;;721.55;;
12359;SDS011;6244;51.460;7.090;2022-09-04T05:32:46;1120.03;;;715.78;;
12359;SDS011;6244;51.460;7.090;2022-09-04T05:37:47;1122.45;;;725.28;;
12359;SDS011;6244;51.460;7.090;2022-09-04T05:42:51;1121.00;;;722.70;;
12359;SDS011;6244;51.460;7.090;2022-09-04T05:47:55;1117.50;;;714.35;;
12359;SDS011;6244;51.460;7.090;2022-09-04T05:52:57;1120.65;;;729.95;;
12359;SDS011;6244;51.460;7.090;2022-09-04T05:58:03;1118.68;;;729.00;;
12359;SDS011;6244;51.460;7.090;2022-09-04T06:08:30;1119.60;;;734.97;;
12359;SDS011;6244;51.460;7.090;2022-09-04T06:13:41;1117.97;;;723.80;;
12359;SDS011;6244;51.460;7.090;2022-09-04T06:18:46;1118.00;;;727.37;;
12359;SDS011;6244;51.460;7.090;2022-09-04T06:34:25;1121.80;;;732.83;;
12359;SDS011;6244;51.460;7.090;2022-09-04T06:39:26;1115.35;;;719.03;;
12359;SDS011;6244;51.460;7.090;2022-09-04T06:44:30;1120.28;;;740.08;;
12359;SDS011;6244;51.460;7.090;2022-09-04T06:49:34;1117.70;;;770.05;;
12359;SDS011;6244;51.460;7.090;2022-09-04T06:54:36;1118.68;;;789.78;;
12359;SDS011;6244;51.460;7.090;2022-09-04T06:59:46;1117.65;;;784.50;;
12359;SDS011;6244;51.460;7.090;2022-09-04T07:04:51;1121.45;;;799.33;;
12359;SDS011;6244;51.460;7.090;2022-09-04T07:09:52;1119.35;;;778.53;;
12359;SDS011;6244;51.460;7.090;2022-09-04T07:15:15;1122.33;;;779.20;;
12359;SDS011;6244;51.460;7.090;2022-09-04T07:20:20;1122.53;;;783.17;;
12359;SDS011;6244;51.460;7.090;2022-09-04T07:25:22;1122.00;;;794.47;;
12359;SDS011;6244;51.460;7.090;2022-09-04T07:30:22;1121.95;;;796.67;;
12359;SDS011;6244;51.460;7.090;2022-09-04T07:35:21;1121.53;;;795.28;;
12359;SDS011;6244;51.460;7.090;2022-09-04T07:40:20;1123.43;;;815.60;;
12359;SDS011;6244;51.460;7.090;2022-09-04T07:45:24;1131.35;;;818.22;;
12359;SDS011;6244;51.460;7.090;2022-09-04T07:50:25;1131.80;;;832.78;;
12359;SDS011;6244;51.460;7.090;2022-09-04T07:55:32;1132.07;;;838.53;;
12359;SDS011;6244;51.460;7.090;2022-09-04T08:00:31;1129.63;;;852.28;;
12359;SDS011;6244;51.460;7.090;2022-09-04T08:05:35;1133.20;;;883.17;;
12359;SDS011;6244;51.460;7.090;2022-09-04T08:10:32;1130.57;;;891.07;;
12359;SDS011;6244;51.460;7.090;2022-09-04T08:15:34;1121.55;;;928.22;;
12359;SDS011;6244;51.460;7.090;2022-09-04T08:20:46;1116.20;;;928.05;;
12359;SDS011;6244;51.460;7.090;2022-09-04T08:25:50;1115.93;;;936.80;;
12359;SDS011;6244;51.460;7.090;2022-09-04T08:30:52;1109.65;;;948.78;;
12359;SDS011;6244;51.460;7.090;2022-09-04T08:35:53;1093.45;;;929.58;;
12359;SDS011;6244;51.460;7.090;2022-09-04T08:41:01;1099.57;;;968.93;;
12359;SDS011;6244;51.460;7.090;2022-09-04T08:51:34;1098.47;;;969.60;;
12359;SDS011;6244;51.460;7.090;2022-09-04T08:56:40;1093.72;;;955.05;;
12359;SDS011;6244;51.460;7.090;2022-09-04T09:07:12;1098.25;;;976.75;;
12359;SDS011;6244;51.460;7.090;2022-09-04T09:12:36;1103.22;;;981.45;;
12359;SDS011;6244;51.460;7.090;2022-09-04T09:17:38;1098.80;;;974.17;;
12359;SDS011;6244;51.460;7.090;2022-09-04T09:23:07;1086.05;;;958.72;;
12359;SDS011;6244;51.460;7.090;2022-09-04T09:33:26;1090.20;;;964.95;;
12359;SDS011;6244;51.460;7.090;2022-09-04T09:43:52;1099.53;;;980.07;;
12359;SDS011;6244;51.460;7.090;2022-09-04T09:49:09;1097.47;;;978.03;;
12359;SDS011;6244;51.460;7.090;2022-09-04T09:59:40;1086.15;;;966.50;;
12359;SDS011;6244;51.460;7.090;2022-09-04T10:05:04;1086.15;;;967.00;;
12359;SDS011;6244;51.460;7.090;2022-09-04T10:10:08;1084.93;;;965.38;;
12359;SDS011;6244;51.460;7.090;2022-09-04T10:15:18;1095.40;;;975.93;;
12359;SDS011;6244;51.460;7.090;2022-09-04T10:30:56;1093.60;;;974.85;;
12359;SDS011;6244;51.460;7.090;2022-09-04T10:36:00;1121.47;;;999.90;;
12359;SDS011;6244;51.460;7.090;2022-09-04T10:41:13;1133.13;;;999.90;;
12359;SDS011;6244;51.460;7.090;2022-09-04T10:46:17;1103.78;;;984.97;;
12359;SDS011;6244;51.460;7.090;2022-09-04T10:51:21;1130.18;;;999.90;;
12359;SDS011;6244;51.460;7.090;2022-09-04T10:56:23;1122.43;;;999.90;;
12359;SDS011;6244;51.460;7.090;2022-09-04T11:01:29;1132.50;;;999.90;;
12359;SDS011;6244;51.460;7.090;2022-09-04T11:06:40;1109.57;;;989.38;;
12359;SDS011;6244;51.460;7.090;2022-09-04T11:11:48;1109.30;;;989.10;;
12359;SDS011;6244;51.460;7.090;2022-09-04T11:16:55;1124.33;;;999.90;;
12359;SDS011;6244;51.460;7.090;2022-09-04T11:22:00;1102.63;;;984.30;;
12359;SDS011;6244;51.460;7.090;2022-09-04T11:27:10;1122.13;;;999.90;;
12359;SDS011;6244;51.460;7.090;2022-09-04T11:32:15;1118.10;;;999.90;;
12359;SDS011;6244;51.460;7.090;2022-09-04T11:37:27;1121.97;;;999.90;;
12359;SDS011;6244;51.460;7.090;2022-09-04T11:42:29;1098.68;;;981.88;;
12359;SDS011;6244;51.460;7.090;2022-09-04T11:52:57;1089.00;;;973.50;;
12359;SDS011;6244;51.460;7.090;2022-09-04T12:08:42;1099.60;;;986.67;;
12359;SDS011;6244;51.460;7.090;2022-09-04T12:13:50;1047.40;;;933.65;;
12359;SDS011;6244;51.460;7.090;2022-09-04T12:24:11;1011.33;;;886.67;;
12359;SDS011;6244;51.460;7.090;2022-09-04T12:34:28;1101.30;;;981.22;;
12359;SDS011;6244;51.460;7.090;2022-09-04T12:39:38;1100.70;;;979.58;;
12359;SDS011;6244;51.460;7.090;2022-09-04T12:44:41;1115.83;;;993.57;;
12359;SDS011;6244;51.460;7.090;2022-09-04T12:49:51;1099.20;;;971.67;;
12359;SDS011;6244;51.460;7.090;2022-09-04T12:54:56;1104.17;;;980.53;;
12359;SDS011;6244;51.460;7.090;2022-09-04T13:00:01;1100.32;;;938.20;;
12359;SDS011;6244;51.460;7.090;2022-09-04T13:05:17;1106.10;;;951.53;;
12359;SDS011;6244;51.460;7.090;2022-09-04T13:10:22;1109.82;;;935.45;;
12359;SDS011;6244;51.460;7.090;2022-09-04T13:15:22;1105.07;;;929.05;;
12359;SDS011;6244;51.460;7.090;2022-09-04T13:20:24;1101.70;;;928.53;;
12359;SDS011;6244;51.460;7.090;2022-09-04T13:25:27;1098.45;;;918.72;;
12359;SDS011;6244;51.460;7.090;2022-09-04T13:30:24;1100.78;;;936.03;;
12359;SDS011;6244;51.460;7.090;2022-09-04T13:35:24;1102.75;;;952.97;;
12359;SDS011;6244;51.460;7.090;2022-09-04T13:40:36;1102.03;;;951.47;;
12359;SDS011;6244;51.460;7.090;2022-09-04T13:45:38;1091.45;;;919.28;;
12359;SDS011;6244;51.460;7.090;2022-09-04T13:50:36;1089.93;;;948.83;;
12359;SDS011;6244;51.460;7.090;2022-09-04T13:55:34;1088.73;;;932.47;;
12359;SDS011;6244;51.460;7.090;2022-09-04T14:00:34;1090.47;;;932.77;;
12359;SDS011;6244;51.460;7.090;2022-09-04T14:05:32;1090.65;;;915.15;;
12359;SDS011;6244;51.460;7.090;2022-09-04T14:10:35;1092.72;;;901.85;;
12359;SDS011;6244;51.460;7.090;2022-09-04T14:15:46;1096.43;;;911.97;;
12359;SDS011;6244;51.460;7.090;2022-09-04T14:20:47;1096.78;;;912.25;;
12359;SDS011;6244;51.460;7.090;2022-09-04T14:25:52;1090.68;;;907.28;;
12359;SDS011;6244;51.460;7.090;2022-09-04T14:30:55;1090.60;;;921.83;;
12359;SDS011;6244;51.460;7.090;2022-09-04T14:35:54;1086.70;;;910.50;;
12359;SDS011;6244;51.460;7.090;2022-09-04T14:40:56;1085.93;;;898.33;;
12359;SDS011;6244;51.460;7.090;2022-09-04T14:46:02;1086.90;;;909.97;;
12359;SDS011;6244;51.460;7.090;2022-09-04T14:51:07;1090.88;;;954.58;;
12359;SDS011;6244;51.460;7.090;2022-09-04T15:01:26;1090.90;;;936.17;;
12359;SDS011;6244;51.460;7.090;2022-09-04T15:06:25;1091.57;;;930.33;;
12359;SDS011;6244;51.460;7.090;2022-09-04T15:11:24;1092.03;;;935.15;;
12359;SDS011;6244;51.460;7.090;2022-09-04T15:16:22;1096.15;;;941.83;;
